createdAt,value
2023-08-07T00:01:22.878Z,1.20
2023-08-07T00:03:49.675Z,1.10
2023-08-07T00:06:16.399Z,1.25
2023-08-07T00:08:43.178Z,1.00
2023-08-07T00:11:11.895Z,1.10
2023-08-07T00:13:38.797Z,1.20
2023-08-07T00:16:05.627Z,1.00
2023-08-07T00:18:32.436Z,0.90
2023-08-07T00:20:59.256Z,1.08
2023-08-07T00:23:25.925Z,1.20
2023-08-07T00:25:52.656Z,1.35
2023-08-07T00:28:20.793Z,1.40
2023-08-07T00:30:47.516Z,1.10
2023-08-07T00:33:14.333Z,1.17
2023-08-07T00:35:41.030Z,1.20
2023-08-07T00:38:07.757Z,1.45
2023-08-07T00:40:38.110Z,1.40
2023-08-07T00:43:04.872Z,1.77
2023-08-07T00:45:36.171Z,1.40
2023-08-07T00:48:03.049Z,1.73
2023-08-07T00:50:45.999Z,1.30
2023-08-07T00:53:14.178Z,1.48
2023-08-07T00:55:40.924Z,1.30
2023-08-07T00:58:07.616Z,1.70
2023-08-07T01:00:35.745Z,1.40
2023-08-07T01:03:02.735Z,1.40
2023-08-07T01:05:29.606Z,1.60
2023-08-07T01:07:56.406Z,1.50
2023-08-07T01:10:40.474Z,1.45
2023-08-07T01:13:13.341Z,1.60
2023-08-07T01:15:41.542Z,1.60
2023-08-07T01:18:08.888Z,1.20
2023-08-07T01:20:35.939Z,1.50
2023-08-07T01:23:04.134Z,1.52
2023-08-07T01:25:31.196Z,1.75
2023-08-07T01:28:04.094Z,1.60
2023-08-07T01:30:36.803Z,1.90
2023-08-07T01:33:10.410Z,1.85
2023-08-07T01:35:42.481Z,1.83
2023-08-07T01:38:12.395Z,1.70
2023-08-07T01:40:40.390Z,1.73
2023-08-07T01:43:07.096Z,1.53
2023-08-07T01:45:33.991Z,1.73
2023-08-07T01:48:01.216Z,1.60
2023-08-07T01:50:28.517Z,2.10
2023-08-07T01:52:55.206Z,1.77
2023-08-07T01:55:23.882Z,1.73
2023-08-07T01:57:50.775Z,1.80
2023-08-07T02:00:17.814Z,1.77
2023-08-07T02:02:44.731Z,1.80
2023-08-07T02:05:11.545Z,1.70
2023-08-07T02:07:38.292Z,1.80
2023-08-07T02:10:05.469Z,1.93
2023-08-07T02:12:33.548Z,1.88
2023-08-07T02:15:00.362Z,1.58
2023-08-07T02:17:28.385Z,1.50
2023-08-07T02:19:55.106Z,1.80
2023-08-07T02:22:21.875Z,2.08
2023-08-07T02:24:48.696Z,1.90
2023-08-07T02:27:15.432Z,2.20
2023-08-07T02:29:43.707Z,1.83
2023-08-07T02:32:10.409Z,1.90
2023-08-07T02:34:37.144Z,1.90
2023-08-07T02:37:04.282Z,2.10
2023-08-07T02:39:31.033Z,2.20
2023-08-07T02:41:57.721Z,1.80
2023-08-07T02:44:24.549Z,2.03
2023-08-07T02:46:52.711Z,2.08
2023-08-07T02:49:19.503Z,2.20
2023-08-07T02:51:46.344Z,2.20
2023-08-07T02:54:13.045Z,2.03
2023-08-07T02:56:39.774Z,2.10
2023-08-07T02:59:06.502Z,1.80
2023-08-07T03:01:33.324Z,1.77
2023-08-07T03:04:01.453Z,2.13
2023-08-07T03:06:28.156Z,2.00
2023-08-07T03:08:54.836Z,1.70
2023-08-07T03:11:21.537Z,1.90
2023-08-07T03:13:48.293Z,1.58
2023-08-07T03:16:15.161Z,2.03
2023-08-07T03:18:41.916Z,1.92
2023-08-07T03:21:10.072Z,1.63
2023-08-07T03:23:36.763Z,1.80
2023-08-07T03:26:17.417Z,2.08
2023-08-07T03:28:45.472Z,1.65
2023-08-07T03:31:12.523Z,1.80
2023-08-07T03:33:39.265Z,1.85
2023-08-07T03:36:06.211Z,1.95
2023-08-07T03:38:34.303Z,2.05
2023-08-07T03:41:01.029Z,1.83
2023-08-07T03:43:27.751Z,1.83
2023-08-07T03:45:55.670Z,2.28
2023-08-07T03:48:22.478Z,2.20
2023-08-07T03:50:49.403Z,2.30
2023-08-07T03:53:16.183Z,2.10
2023-08-07T03:55:44.442Z,1.60
2023-08-07T03:58:11.186Z,1.65
2023-08-07T04:00:37.936Z,1.73
2023-08-07T04:03:06.701Z,1.65
2023-08-07T04:05:34.706Z,2.10
2023-08-07T04:08:01.487Z,1.73
2023-08-07T04:10:28.210Z,1.90
2023-08-07T04:12:56.550Z,1.50
2023-08-07T04:15:23.282Z,1.70
2023-08-07T04:17:50.065Z,1.80
2023-08-07T04:20:17.032Z,1.80
2023-08-07T04:22:43.880Z,1.90
2023-08-07T04:25:11.082Z,1.70
2023-08-07T04:27:37.909Z,1.70
2023-08-07T04:30:07.259Z,1.88
2023-08-07T04:32:34.034Z,1.80
2023-08-07T04:35:00.783Z,1.80
2023-08-07T04:37:27.485Z,1.57
2023-08-07T04:39:54.229Z,1.80
2023-08-07T04:42:20.972Z,1.90
2023-08-07T04:44:47.895Z,2.00
2023-08-07T04:47:15.984Z,2.22
2023-08-07T04:49:42.766Z,2.10
2023-08-07T04:52:20.597Z,1.75
2023-08-07T04:54:52.577Z,2.10
2023-08-07T04:57:19.520Z,2.17
2023-08-07T04:59:46.295Z,1.63
2023-08-07T05:02:13.102Z,1.70
2023-08-07T05:04:41.277Z,1.77
2023-08-07T05:07:08.127Z,1.80
2023-08-07T05:09:34.869Z,1.90
2023-08-07T05:12:01.678Z,1.90
2023-08-07T05:14:28.447Z,1.75
2023-08-07T05:16:55.351Z,2.03
2023-08-07T05:19:22.336Z,1.92
2023-08-07T05:21:50.630Z,2.00
2023-08-07T05:24:17.433Z,1.90
2023-08-07T05:26:44.221Z,2.00
2023-08-07T05:29:10.968Z,2.00
2023-08-07T05:31:37.702Z,1.77
2023-08-07T05:34:04.650Z,1.90
2023-08-07T05:36:31.396Z,1.98
2023-08-07T05:38:59.557Z,1.75
2023-08-07T05:41:26.260Z,2.00
2023-08-07T05:43:53.021Z,1.98
2023-08-07T05:46:20.000Z,2.20
2023-08-07T05:48:46.849Z,1.90
2023-08-07T05:51:13.661Z,1.92
2023-08-07T05:53:40.533Z,2.00
2023-08-07T05:56:08.703Z,1.90
2023-08-07T05:58:35.507Z,1.60
2023-08-07T06:01:02.254Z,1.80
2023-08-07T06:03:29.016Z,1.70
2023-08-07T06:05:55.943Z,1.80
2023-08-07T06:08:22.774Z,1.80
2023-08-07T06:10:49.607Z,2.50
2023-08-07T06:13:30.391Z,1.92
2023-08-07T06:15:57.624Z,1.80
2023-08-07T06:18:24.388Z,1.83
2023-08-07T06:20:51.258Z,1.98
2023-08-07T06:23:18.083Z,1.73
2023-08-07T06:25:44.813Z,2.53
2023-08-07T06:28:11.687Z,1.80
2023-08-07T06:30:39.830Z,1.75
2023-08-07T06:33:06.732Z,1.80
2023-08-07T06:35:38.792Z,1.80
2023-08-07T06:38:05.717Z,1.80
2023-08-07T06:40:32.474Z,2.00
2023-08-07T06:42:59.196Z,1.73
2023-08-07T06:45:26.017Z,1.90
2023-08-07T06:47:54.283Z,1.70
2023-08-07T06:50:21.317Z,2.10
2023-08-07T06:52:48.131Z,2.00
2023-08-07T06:55:15.025Z,1.50
2023-08-07T06:57:41.838Z,1.92
2023-08-07T07:00:09.754Z,1.70
2023-08-07T07:02:36.517Z,1.67
2023-08-07T07:05:05.161Z,1.73
2023-08-07T07:07:31.981Z,2.08
2023-08-07T07:09:58.917Z,1.40
2023-08-07T07:12:25.720Z,1.42
2023-08-07T07:14:52.463Z,1.70
2023-08-07T07:17:19.197Z,1.45
2023-08-07T07:19:46.135Z,1.80
2023-08-07T07:22:14.432Z,1.63
2023-08-07T07:24:41.274Z,1.83
2023-08-07T07:27:08.086Z,1.50
2023-08-07T07:29:34.983Z,1.63
2023-08-07T07:32:01.881Z,1.73
2023-08-07T07:34:28.838Z,2.20
2023-08-07T07:36:55.612Z,1.77
2023-08-07T07:39:23.911Z,1.63
2023-08-07T07:41:50.633Z,1.75
2023-08-07T07:44:17.430Z,2.13
2023-08-07T07:46:44.314Z,1.50
2023-08-07T07:49:11.035Z,1.83
2023-08-07T07:51:37.846Z,2.20
2023-08-07T07:54:14.296Z,2.03
2023-08-07T07:56:43.568Z,2.25
2023-08-07T07:59:10.384Z,2.65
2023-08-07T08:01:37.157Z,1.90
2023-08-07T08:04:04.175Z,2.30
2023-08-07T08:06:31.004Z,1.88
2023-08-07T08:08:58.020Z,1.80
2023-08-07T08:11:24.789Z,1.65
2023-08-07T08:13:53.052Z,1.92
2023-08-07T08:16:19.868Z,1.90
2023-08-07T08:18:46.623Z,1.70
2023-08-07T08:21:13.337Z,1.42
2023-08-07T08:23:40.433Z,1.83
2023-08-07T08:26:07.211Z,1.92
2023-08-07T08:28:34.083Z,1.67
2023-08-07T08:31:02.239Z,2.30
2023-08-07T08:33:29.031Z,1.67
2023-08-07T08:35:55.790Z,2.10
2023-08-07T08:38:22.486Z,1.70
2023-08-07T08:40:53.090Z,2.28
2023-08-07T08:43:20.422Z,1.63
2023-08-07T08:45:47.791Z,1.52
2023-08-07T08:48:20.862Z,1.90
2023-08-07T08:50:47.671Z,1.77
2023-08-07T08:53:18.010Z,1.95
2023-08-07T08:55:52.310Z,1.77
2023-08-07T08:58:19.445Z,2.17
2023-08-07T09:00:49.516Z,2.27
2023-08-07T09:03:17.976Z,1.90
2023-08-07T09:05:44.972Z,1.90
2023-08-07T09:08:11.927Z,1.75
2023-08-07T09:10:39.411Z,1.60
2023-08-07T09:13:13.613Z,1.95
2023-08-07T09:15:40.866Z,1.73
2023-08-07T09:18:07.873Z,1.70
2023-08-07T09:20:36.481Z,2.05
2023-08-07T09:23:05.193Z,2.13
2023-08-07T09:25:32.793Z,1.70
2023-08-07T09:27:59.668Z,1.60
2023-08-07T09:30:27.983Z,1.80
2023-08-07T09:32:54.818Z,1.75
2023-08-07T09:35:22.729Z,1.75
2023-08-07T09:37:51.162Z,1.83
2023-08-07T09:40:18.774Z,2.20
2023-08-07T09:42:45.638Z,1.88
2023-08-07T09:45:22.090Z,1.98
2023-08-07T09:47:58.043Z,1.80
2023-08-07T09:50:25.401Z,2.00
2023-08-07T09:52:58.028Z,1.87
2023-08-07T09:55:25.158Z,1.70
2023-08-07T09:57:52.367Z,1.90
2023-08-07T10:00:19.441Z,2.00
2023-08-07T10:02:47.146Z,1.93
2023-08-07T10:05:14.573Z,1.60
2023-08-07T10:07:41.850Z,2.00
2023-08-07T10:10:11.208Z,1.90
2023-08-07T10:12:38.488Z,1.90
2023-08-07T10:15:06.046Z,1.83
2023-08-07T10:17:33.590Z,2.00
2023-08-07T10:20:00.414Z,1.73
2023-08-07T10:22:29.332Z,1.75
2023-08-07T10:24:58.426Z,1.60
2023-08-07T10:27:27.415Z,1.60
2023-08-07T10:29:55.070Z,1.65
2023-08-07T10:32:23.509Z,1.77
2023-08-07T10:34:51.560Z,1.65
2023-08-07T10:37:34.267Z,1.90
2023-08-07T10:40:02.725Z,1.50
2023-08-07T10:42:34.496Z,1.70
2023-08-07T10:45:02.449Z,1.55
2023-08-07T10:47:34.585Z,1.70
2023-08-07T10:50:01.470Z,1.60
2023-08-07T10:52:28.974Z,1.60
2023-08-07T10:54:55.703Z,1.52
2023-08-07T10:57:22.440Z,1.80
2023-08-07T11:00:03.382Z,1.73
2023-08-07T11:02:31.429Z,1.83
2023-08-07T11:05:03.295Z,1.77
2023-08-07T11:07:31.374Z,1.40
2023-08-07T11:09:59.604Z,1.63
2023-08-07T11:12:33.567Z,1.50
2023-08-07T11:15:01.677Z,1.52
2023-08-07T11:17:31.215Z,1.50
2023-08-07T11:19:58.066Z,1.60
2023-08-07T11:22:25.642Z,1.75
2023-08-07T11:24:52.851Z,1.50
2023-08-07T11:27:22.196Z,1.50
2023-08-07T11:29:49.092Z,1.73
2023-08-07T11:32:17.453Z,1.55
2023-08-07T11:34:49.418Z,1.80
2023-08-07T11:37:16.896Z,1.67
2023-08-07T11:39:43.901Z,1.67
2023-08-07T11:42:10.859Z,1.45
2023-08-07T11:44:37.580Z,1.70
2023-08-07T11:47:04.742Z,1.50
2023-08-07T11:49:33.015Z,1.38
2023-08-07T11:51:59.850Z,1.60
2023-08-07T11:54:27.816Z,1.35
2023-08-07T11:56:54.806Z,1.67
2023-08-07T11:59:21.848Z,1.67
2023-08-07T12:01:48.810Z,1.67
2023-08-07T12:04:15.679Z,1.50
2023-08-07T12:06:55.290Z,1.45
2023-08-07T12:09:22.524Z,1.70
2023-08-07T12:11:49.266Z,1.47
2023-08-07T12:14:16.888Z,1.30
2023-08-07T12:16:45.341Z,1.50
2023-08-07T12:19:12.126Z,1.55
2023-08-07T12:21:38.995Z,1.88
2023-08-07T12:24:07.997Z,1.48
2023-08-07T12:26:34.742Z,1.73
2023-08-07T12:29:01.487Z,1.58
2023-08-07T12:31:28.298Z,1.50
2023-08-07T12:33:55.832Z,1.88
2023-08-07T12:36:25.512Z,1.80
2023-08-07T12:38:57.109Z,1.35
2023-08-07T12:43:57.635Z,1.77
2023-08-07T12:48:57.430Z,1.73
2023-08-07T12:51:46.320Z,1.42
2023-08-07T12:54:13.162Z,1.73
2023-08-07T12:56:45.341Z,1.63
2023-08-07T12:59:12.158Z,1.98
2023-08-07T13:01:38.941Z,1.42
2023-08-07T13:04:44.199Z,1.30
2023-08-07T13:07:13.604Z,1.50
2023-08-07T13:09:40.416Z,1.90
2023-08-07T13:12:09.027Z,1.40
2023-08-07T13:14:35.760Z,1.35
2023-08-07T13:17:02.752Z,1.30
2023-08-07T13:19:29.525Z,1.42
2023-08-07T13:21:56.671Z,1.55
2023-08-07T13:24:23.699Z,1.33
2023-08-07T13:26:50.470Z,1.40
2023-08-07T13:29:18.607Z,1.27
2023-08-07T13:31:45.360Z,1.20
2023-08-07T13:34:12.137Z,1.40
2023-08-07T13:36:39.198Z,1.30
2023-08-07T13:39:11.226Z,1.35
2023-08-07T13:41:41.136Z,1.35
2023-08-07T13:44:18.536Z,1.55
2023-08-07T13:50:11.953Z,1.38
2023-08-07T13:52:41.776Z,1.40
2023-08-07T13:55:09.082Z,1.30
2023-08-07T13:57:35.911Z,1.40
2023-08-07T14:00:05.254Z,1.50
2023-08-07T14:02:32.208Z,1.65
2023-08-07T14:04:58.965Z,1.30
2023-08-07T14:07:27.104Z,1.20
2023-08-07T14:09:54.007Z,1.05
2023-08-07T14:12:58.329Z,1.40
2023-08-07T14:15:25.194Z,1.20
2023-08-07T14:21:02.227Z,1.33
2023-08-07T14:47:32.743Z,1.58
2023-08-07T14:49:59.478Z,1.40
2023-08-07T14:52:26.353Z,1.47
2023-08-07T14:54:59.208Z,1.70
2023-08-07T14:57:26.059Z,1.40
2023-08-07T14:59:52.784Z,1.73
2023-08-07T15:02:19.823Z,1.88
2023-08-07T15:04:48.066Z,1.50
2023-08-07T15:07:15.197Z,1.70
2023-08-07T15:09:42.273Z,1.48
2023-08-07T15:12:11.434Z,1.70
2023-08-07T15:14:38.244Z,1.35
2023-08-07T15:17:05.765Z,1.55
2023-08-07T15:19:33.604Z,1.48
2023-08-07T15:22:01.794Z,1.58
2023-08-07T15:24:28.691Z,1.30
2023-08-07T15:26:58.694Z,1.80
2023-08-07T15:29:26.840Z,1.70
2023-08-07T15:31:53.718Z,1.30
2023-08-07T15:34:20.597Z,1.50
2023-08-07T15:36:51.505Z,1.58
2023-08-07T15:39:19.686Z,1.35
2023-08-07T15:41:46.524Z,1.33
2023-08-07T15:44:13.341Z,1.65
2023-08-07T15:46:40.347Z,1.70
2023-08-07T15:49:07.116Z,1.70
2023-08-07T15:51:34.010Z,1.45
2023-08-07T15:54:00.800Z,1.38
2023-08-07T15:56:30.646Z,2.58
2023-08-07T15:58:57.420Z,2.00
2023-08-07T16:01:24.239Z,2.78
2023-08-07T16:03:51.084Z,2.33
2023-08-07T16:06:17.852Z,1.90
2023-08-07T16:08:44.720Z,1.40
2023-08-07T16:11:11.422Z,1.50
2023-08-07T16:13:39.728Z,1.90
2023-08-07T16:16:06.598Z,2.00
2023-08-07T16:18:33.482Z,1.70
2023-08-07T16:21:00.798Z,2.00
2023-08-07T16:23:27.558Z,2.00
2023-08-07T16:25:54.322Z,2.05
2023-08-07T16:28:21.069Z,2.20
2023-08-07T16:30:49.244Z,2.30
2023-08-07T16:33:15.953Z,2.00
2023-08-07T16:35:42.663Z,1.98
2023-08-07T16:38:09.628Z,2.20
2023-08-07T16:40:36.359Z,2.40
2023-08-07T16:43:03.315Z,2.13
2023-08-07T16:45:30.085Z,2.00
2023-08-07T16:47:59.343Z,1.92
2023-08-07T16:50:26.139Z,1.77
2023-08-07T16:52:52.980Z,2.20
2023-08-07T16:55:19.882Z,1.80
2023-08-07T16:57:46.592Z,1.95
2023-08-07T17:00:14.514Z,2.07
2023-08-07T17:02:41.366Z,1.75
2023-08-07T17:05:10.282Z,2.20
2023-08-07T17:07:37.046Z,1.80
2023-08-07T17:10:04.299Z,2.10
2023-08-07T17:12:31.004Z,1.77
2023-08-07T17:14:57.813Z,2.30
2023-08-07T17:17:24.690Z,2.10
2023-08-07T17:19:51.454Z,2.20
2023-08-07T17:22:19.539Z,2.25
2023-08-07T17:24:46.276Z,2.40
2023-08-07T17:27:13.033Z,2.35
2023-08-07T17:29:39.748Z,2.08
2023-08-07T17:32:07.099Z,1.75
2023-08-07T17:34:33.886Z,2.03
2023-08-07T17:37:01.162Z,2.22
2023-08-07T17:39:29.554Z,2.08
2023-08-07T17:41:56.244Z,2.10
2023-08-07T17:44:23.063Z,2.10
2023-08-07T17:46:49.791Z,2.53
2023-08-07T17:49:16.670Z,2.10
2023-08-07T17:51:43.448Z,1.90
2023-08-07T17:54:10.243Z,1.80
2023-08-07T17:56:38.530Z,1.70
2023-08-07T17:59:05.311Z,1.50
2023-08-07T18:01:32.101Z,2.03
2023-08-07T18:03:58.885Z,1.83
2023-08-07T18:06:25.644Z,1.73
2023-08-07T18:08:52.444Z,1.83
2023-08-07T18:11:19.479Z,1.58
2023-08-07T18:13:47.994Z,1.65
2023-08-07T18:16:15.167Z,1.55
2023-08-07T18:18:41.940Z,1.63
2023-08-07T18:21:08.751Z,1.80
2023-08-07T18:23:35.502Z,1.65
2023-08-07T18:26:02.233Z,1.48
2023-08-07T18:28:28.981Z,1.38
2023-08-07T18:30:57.201Z,1.80
2023-08-07T18:33:23.998Z,1.60
2023-08-07T18:35:50.708Z,1.10
2023-08-07T18:38:17.459Z,1.70
2023-08-07T18:40:44.218Z,1.20
2023-08-07T18:43:10.921Z,1.42
2023-08-07T18:45:37.640Z,1.45
2023-08-07T18:48:07.595Z,1.50
2023-08-07T18:50:34.351Z,1.30
2023-08-07T18:53:01.321Z,1.80
2023-08-07T18:55:28.091Z,1.63
2023-08-07T18:57:55.385Z,1.80
2023-08-07T19:00:22.185Z,1.98
2023-08-07T19:02:48.949Z,1.48
2023-08-07T19:05:17.201Z,1.60
2023-08-07T19:07:44.151Z,1.60
2023-08-07T19:10:11.495Z,1.55
2023-08-07T19:12:38.316Z,2.10
2023-08-07T19:15:05.894Z,1.58
2023-08-07T19:17:32.719Z,1.20
2023-08-07T19:19:59.555Z,1.47
2023-08-07T19:22:27.858Z,1.43
2023-08-07T19:24:54.578Z,1.17
2023-08-07T19:27:21.454Z,1.48
2023-08-07T19:29:48.244Z,1.70
2023-08-07T19:32:15.632Z,1.58
2023-08-07T19:34:42.377Z,1.42
2023-08-07T19:37:11.968Z,1.35
2023-08-07T19:39:40.137Z,1.10
2023-08-07T19:42:07.320Z,1.30
2023-08-07T19:44:34.159Z,1.30
2023-08-07T19:47:00.900Z,1.47
2023-08-07T19:49:30.854Z,1.40
2023-08-07T19:52:01.576Z,1.73
2023-08-07T19:54:28.291Z,1.38
2023-08-07T19:56:56.809Z,1.48
2023-08-07T19:59:26.541Z,1.20
2023-08-07T20:01:53.343Z,1.17
2023-08-07T20:04:23.210Z,1.15
2023-08-07T20:06:50.013Z,1.37
2023-08-07T20:09:16.880Z,1.60
2023-08-07T20:11:43.675Z,1.60
2023-08-07T20:14:11.915Z,1.55
2023-08-07T20:16:38.727Z,1.30
2023-08-07T20:19:05.483Z,1.10
2023-08-07T20:21:32.333Z,1.50
2023-08-07T20:23:59.097Z,1.27
2023-08-07T20:26:26.035Z,1.50
2023-08-07T20:28:52.841Z,1.17
2023-08-07T20:31:20.967Z,1.10
2023-08-07T20:33:47.709Z,1.10
2023-08-07T20:36:14.527Z,1.20
2023-08-07T20:38:41.612Z,1.20
2023-08-07T20:41:08.440Z,1.40
2023-08-07T20:43:35.188Z,1.40
2023-08-07T20:46:02.586Z,1.30
2023-08-07T20:48:34.069Z,1.13
2023-08-07T20:51:00.785Z,1.23
2023-08-07T20:53:27.711Z,0.87
2023-08-07T20:56:03.232Z,1.00
2023-08-07T20:58:29.997Z,1.25
2023-08-07T21:00:59.915Z,1.13
2023-08-07T21:03:36.878Z,1.10
2023-08-07T21:06:06.781Z,0.90
2023-08-07T21:08:47.964Z,1.20
2023-08-07T21:11:14.899Z,1.40
2023-08-07T21:13:41.791Z,1.10
2023-08-07T21:16:08.561Z,2.20
2023-08-07T21:18:36.667Z,1.33
2023-08-07T21:21:03.435Z,1.25
2023-08-07T21:23:30.139Z,1.10
2023-08-07T21:25:57.013Z,1.33
2023-08-07T21:28:23.786Z,1.60
2023-08-07T21:30:50.812Z,1.02
2023-08-07T21:33:17.634Z,1.10
2023-08-07T21:35:45.754Z,1.33
2023-08-07T21:38:12.511Z,1.02
2023-08-07T21:40:39.210Z,1.27
2023-08-07T21:43:05.948Z,1.13
2023-08-07T21:45:32.687Z,1.23
2023-08-07T21:47:59.563Z,1.00
2023-08-07T21:50:26.378Z,1.10
2023-08-07T21:52:54.664Z,1.00
2023-08-07T21:55:21.417Z,1.30
2023-08-07T21:57:48.242Z,1.10
2023-08-07T22:00:15.598Z,1.20
2023-08-07T22:02:42.747Z,1.10
2023-08-07T22:05:10.300Z,1.00
2023-08-07T22:07:37.124Z,1.00
2023-08-07T22:10:05.734Z,1.10
2023-08-07T22:12:32.515Z,1.15
2023-08-07T22:14:59.259Z,1.20
2023-08-07T22:17:25.991Z,0.85
2023-08-07T22:20:04.013Z,1.00
2023-08-07T22:22:31.827Z,1.03
2023-08-07T22:24:58.616Z,1.10
2023-08-07T22:27:26.949Z,1.27
2023-08-07T22:29:53.698Z,0.98
2023-08-07T22:32:20.565Z,1.27
2023-08-07T22:34:47.321Z,1.00
2023-08-07T22:37:14.060Z,1.02
2023-08-07T22:39:40.823Z,1.17
2023-08-07T22:42:08.241Z,1.00
2023-08-07T22:44:36.570Z,0.95
2023-08-07T22:47:03.783Z,1.30
2023-08-07T22:49:31.055Z,1.30
2023-08-07T22:51:58.218Z,1.40
2023-08-07T22:54:25.397Z,1.13
2023-08-07T22:56:52.173Z,1.27
2023-08-07T22:59:18.875Z,1.05
2023-08-07T23:01:47.007Z,1.13
2023-08-07T23:04:13.755Z,1.10
2023-08-07T23:06:40.529Z,1.20
2023-08-07T23:09:07.257Z,0.90
2023-08-07T23:11:34.016Z,1.00
2023-08-07T23:14:00.789Z,1.00
2023-08-07T23:16:27.653Z,1.00
2023-08-07T23:18:55.756Z,1.10
2023-08-07T23:21:22.674Z,1.20
2023-08-07T23:23:49.542Z,1.10
2023-08-07T23:26:16.282Z,1.08
2023-08-07T23:28:43.033Z,0.98
2023-08-07T23:31:09.737Z,1.08
2023-08-07T23:33:36.631Z,1.00
2023-08-07T23:36:05.018Z,1.00
2023-08-07T23:38:31.792Z,1.17
2023-08-07T23:40:59.060Z,1.13
2023-08-07T23:43:25.812Z,1.27
2023-08-07T23:45:52.580Z,1.13
2023-08-07T23:48:19.256Z,1.05
2023-08-07T23:50:45.990Z,1.05
2023-08-07T23:53:14.107Z,1.10
2023-08-07T23:55:40.849Z,0.80
2023-08-07T23:58:09.613Z,1.20
